Estación de Morza

Ultimos registro cada 15 minutos 76
Estación Fecha / Hora Temperatura Humedad Lluvia Velocidad Dirección Radiación Presion
76 Morza 02-09-2026 18:45 15,1 80 0 0 223 0 1018,9
75 Morza 02-09-2026 18:30 15,2 79 0 0 143 0 1018,6
74 Morza 02-09-2026 18:15 15,3 79 0 0 147 0 1018,3
73 Morza 02-09-2026 18:00 15,3 78 0 0 30 0 1018,2
72 Morza 02-09-2026 17:45 15,6 77 0 0,4 97 9 1017,7
71 Morza 02-09-2026 17:30 16,1 75 0 0,4 344 23 1017,5
70 Morza 02-09-2026 17:15 16,8 73 0 1,3 253 37 1016,8
69 Morza 02-09-2026 17:00 17,4 72 0 0,9 308 69 1016,9
68 Morza 02-09-2026 16:45 18 71 0 0,9 290 90 1016,9
67 Morza 02-09-2026 16:30 18,8 68 0 0,4 294 102 1016,5
66 Morza 02-09-2026 16:15 19,6 62 0 0,9 290 107 1016,6
65 Morza 02-09-2026 16:00 19,9 61 0 0,4 352 142 1016,6
64 Morza 02-09-2026 15:45 20,2 58 0 1,8 279 213 1016,6
63 Morza 02-09-2026 15:30 20,2 57 0 0,4 273 267 1016,6
62 Morza 02-09-2026 15:15 20,6 63 0 0,9 77 640 1016,5
61 Morza 02-09-2026 15:00 19,8 59 0 0,4 315 450 1016,5
60 Morza 02-09-2026 14:45 19,9 61 0 0,9 345 352 1016,6
59 Morza 02-09-2026 14:30 19,9 61 0 0,4 7 306 1016,5
58 Morza 02-09-2026 14:15 19,3 67 0 0 50 480 1016,3
57 Morza 02-09-2026 14:00 18,8 62 0 0,9 152 257 1016,8
56 Morza 02-09-2026 13:45 18 72 0 0,4 322 410 1017
55 Morza 02-09-2026 13:30 17,6 75 0 0,4 358 297 1017,1
54 Morza 02-09-2026 13:15 17,3 78 0 0,9 348 271 1017,3
53 Morza 02-09-2026 13:00 16,9 76 0 0,4 333 269 1017,4
52 Morza 02-09-2026 12:45 16,8 81 0 0,9 40 323 1017,2
51 Morza 02-09-2026 12:30 16,4 78 0 0,4 109 276 1017,2
50 Morza 02-09-2026 12:15 16,4 79 0 1,3 51 295 1017,3
49 Morza 02-09-2026 12:00 15,8 76 0 0,9 108 309 1017,6
48 Morza 02-09-2026 11:45 15,6 76 0 0 87 244 1017,8
47 Morza 02-09-2026 11:30 15,6 77 0 0 203 181 1018,1
46 Morza 02-09-2026 11:15 15,2 81 0 0 50 193 1017,8
45 Morza 02-09-2026 11:00 14,7 79 0 0,4 313 262 1017,9
44 Morza 02-09-2026 10:45 14,3 78 0 0 297 439 1017,4
43 Morza 02-09-2026 10:30 14 80 0 0,4 88 244 1017,4
42 Morza 02-09-2026 10:15 13,3 81 0 0,4 313 264 1017,3
41 Morza 02-09-2026 10:00 12,9 82 0 0,4 262 192 1017,4
40 Morza 02-09-2026 09:45 12,8 82 0 0 303 128 1017,4
39 Morza 02-09-2026 09:30 12,6 84 0 0,4 356 188 1017,2
38 Morza 02-09-2026 09:15 12,3 86 0 0 57 142 1017,4
37 Morza 02-09-2026 09:00 12 88 0 0 36 84 1017,5
36 Morza 02-09-2026 08:45 11,7 87 0 0 240 72 1017,6
35 Morza 02-09-2026 08:30 11,6 89 0 0 241 47 1017,2
34 Morza 02-09-2026 08:15 11,4 88 0 0 241 30 1017,1
33 Morza 02-09-2026 08:00 11,3 88 0 0 238 16 1016,9
32 Morza 02-09-2026 07:45 11,2 89 0 0 137 11 1016,7
31 Morza 02-09-2026 07:30 10,9 92 0 0 89 7 1017
30 Morza 02-09-2026 07:15 10,9 92 0 0 168 0 1017
29 Morza 02-09-2026 07:00 10,9 92 0 0 168 0 1016,6
28 Morza 02-09-2026 06:45 10,9 92 0 0 168 0 1016,4
27 Morza 02-09-2026 06:30 11,1 93 0 0 168 0 1016,1
26 Morza 02-09-2026 06:15 11,1 93 0 0 168 0 1015,7
25 Morza 02-09-2026 06:00 11,2 93 0 0 168 0 1015,7
24 Morza 02-09-2026 05:45 11,2 92 0 0 168 0 1015,3
23 Morza 02-09-2026 05:30 11,3 93 0 0 168 0 1015,3
22 Morza 02-09-2026 05:15 11,3 92 0 0 172 0 1015,2
21 Morza 02-09-2026 05:00 11,4 92 0 0 172 0 1015,3
20 Morza 02-09-2026 04:45 11,3 92 0 0 151 0 1015,3
19 Morza 02-09-2026 04:30 11,4 92 0 0 273 0 1015,2
18 Morza 02-09-2026 04:15 11,5 92 0 0 273 0 1015,2
17 Morza 02-09-2026 04:00 11,7 92 0 0 273 0 1015,1
16 Morza 02-09-2026 03:45 11,8 91 0 0 273 0 1015,1
15 Morza 02-09-2026 03:30 12 91 0 0 273 0 1015,3
14 Morza 02-09-2026 03:15 12,1 90 0 0 273 0 1015,8
13 Morza 02-09-2026 03:00 12,3 90 0 0 273 0 1016
12 Morza 02-09-2026 02:45 12,4 89 0 0 273 0 1016
11 Morza 02-09-2026 02:30 12,6 89 0 0 273 0 1016,2
10 Morza 02-09-2026 02:15 12,8 88 0 0 273 0 1016,2
9 Morza 02-09-2026 02:00 13 88 0 0 273 0 1016,1
8 Morza 02-09-2026 01:45 13,2 87 0 0 273 0 1016,3
7 Morza 02-09-2026 01:30 13,3 88 0 0 236 0 1016,4
6 Morza 02-09-2026 01:15 13,4 88 0 0 182 0 1016,1
5 Morza 02-09-2026 01:00 13,6 86 0 0 182 0 1016,5
4 Morza 02-09-2026 00:45 13,7 87 0 0 182 0 1016,6
3 Morza 02-09-2026 00:30 13,8 87 0 0 182 0 1016,6
2 Morza 02-09-2026 00:15 13,9 87 0 0 182 0 1016,5
1 Morza 02-09-2026 00:00 14 86 0 0 133 0 1016,4